Time;durP1;ratioP1;P1;durP2;ratioP2;P2;SDS_P1;SDS_P2;PMS_P1;PMS_P2;Temp;Humidity;BMP_temperature;BMP_pressure;BME280_temperature;BME280_humidity;BME280_pressure;Samples;Min_cycle;Max_cycle;Signal;HPM_P1;HPM_P2
2021/08/06 00:00:14;;;;;;;1.80;1.10;;;14.90;1.40;;;15.92;100.00;94722.81;646047;216;31557;-70
2021/08/06 00:02:55;;;;;;;1.30;1.20;;;14.90;1.40;;;15.91;100.00;94719.78;646419;212;31516;-71
2021/08/06 00:05:37;;;;;;;1.80;1.10;;;14.90;1.40;;;15.89;100.00;94717.86;645021;212;31936;-71
2021/08/06 00:08:19;;;;;;;0.82;0.82;;;14.90;1.40;;;15.81;100.00;94712.57;647557;216;32002;-71
2021/08/06 00:11:00;;;;;;;1.40;1.30;;;14.80;1.40;;;15.74;100.00;94713.24;646848;216;31964;-71
2021/08/06 00:13:42;;;;;;;1.10;1.00;;;14.90;1.40;;;15.76;100.00;94711.03;647563;212;31564;-71
2021/08/06 00:16:24;;;;;;;2.12;1.15;;;14.80;1.40;;;15.77;100.00;94707.75;646484;212;31534;-71
2021/08/06 00:19:05;;;;;;;1.30;1.10;;;14.80;1.40;;;15.71;100.00;94708.36;647914;216;31550;-72
2021/08/06 00:21:47;;;;;;;1.98;1.30;;;14.70;1.40;;;15.67;100.00;94706.60;646071;212;42135;-70
2021/08/06 00:24:29;;;;;;;1.27;1.17;;;14.70;1.40;;;15.65;100.00;94709.06;645709;212;31525;-71
2021/08/06 00:27:11;;;;;;;1.33;1.23;;;14.70;1.40;;;15.67;100.00;94704.14;647033;212;31613;-70
2021/08/06 00:29:52;;;;;;;1.30;1.20;;;14.60;1.40;;;15.65;100.00;94702.55;646948;216;31592;-71
2021/08/06 00:32:34;;;;;;;1.15;1.05;;;14.60;1.40;;;15.66;100.00;94700.20;646886;216;31529;-70
2021/08/06 00:35:51;;;;;;;1.30;1.10;;;14.60;1.40;;;15.62;100.00;94700.73;646020;216;31687;-71
2021/08/06 00:38:33;;;;;;;1.23;1.12;;;14.60;1.40;;;15.62;100.00;94697.38;647768;212;42245;-71
2021/08/06 00:41:15;;;;;;;2.30;0.98;;;14.60;1.40;;;15.57;100.00;94699.29;611783;226;32572;-71
2021/08/06 00:43:59;;;;;;;1.42;1.30;;;14.50;1.40;;;15.52;100.00;94698.42;646386;212;42146;-71
2021/08/06 00:51:50;;;;;;;1.10;1.00;;;14.30;1.40;;;15.52;100.00;94696.70;647071;212;31508;-72
2021/08/06 00:54:31;;;;;;;1.85;1.12;;;14.30;1.40;;;15.55;100.00;94700.77;646253;216;31490;-71
2021/08/06 00:57:13;;;;;;;1.33;1.10;;;14.30;1.40;;;15.55;100.00;94697.69;645892;216;31547;-71
2021/08/06 00:59:55;;;;;;;1.05;0.95;;;14.30;1.40;;;15.55;100.00;94698.84;646393;212;31663;-70
2021/08/06 01:02:41;;;;;;;1.20;1.10;;;14.30;1.40;;;15.56;100.00;94696.37;646607;212;31522;-71
2021/08/06 01:05:28;;;;;;;2.25;1.30;;;14.40;1.40;;;15.58;100.00;94693.09;647451;212;42163;-71
2021/08/06 01:08:14;;;;;;;2.05;1.10;;;14.10;1.40;;;15.46;100.00;94689.53;645809;212;42985;-70
2021/08/06 01:10:56;;;;;;;1.58;1.10;;;14.10;1.40;;;15.32;100.00;94690.59;646839;216;31553;-71
2021/08/06 01:13:42;;;;;;;1.10;0.93;;;14.00;1.40;;;15.24;100.00;94682.73;646734;216;32110;-71
2021/08/06 01:16:29;;;;;;;1.77;1.05;;;14.00;1.40;;;15.22;100.00;94687.56;646524;216;42177;-70
2021/08/06 01:19:14;;;;;;;1.20;1.05;;;14.00;1.40;;;15.15;100.00;94686.48;618311;225;32166;-71
2021/08/06 01:22:02;;;;;;;1.50;0.90;;;14.00;1.40;;;15.12;100.00;94686.45;646966;212;31552;-71
2021/08/06 01:27:20;;;;;;;1.48;1.30;;;14.00;1.40;;;15.25;100.00;94685.09;646374;212;31598;-70
2021/08/06 01:30:02;;;;;;;1.60;1.50;;;14.00;1.40;;;15.26;100.00;94686.58;647897;216;42143;-71
2021/08/06 01:32:44;;;;;;;1.40;1.00;;;14.10;1.40;;;15.29;100.00;94689.57;647035;216;42557;-72
2021/08/06 01:35:57;;;;;;;1.90;1.25;;;14.20;1.40;;;15.34;100.00;94687.53;645390;216;31565;-75
2021/08/06 01:38:51;;;;;;;1.27;1.17;;;14.20;1.40;;;15.30;100.00;94685.72;647937;216;31536;-71
2021/08/06 01:41:34;;;;;;;1.30;1.10;;;14.30;1.40;;;15.30;100.00;94686.78;635071;216;35643;-71
2021/08/06 01:44:28;;;;;;;1.23;1.12;;;14.20;1.40;;;15.22;100.00;94683.10;646317;216;31541;-71
2021/08/06 01:49:53;;;;;;;1.90;1.10;;;14.00;1.40;;;15.02;100.00;94677.76;645894;216;40110;-71
2021/08/06 01:52:41;;;;;;;1.30;0.98;;;13.80;1.40;;;14.90;100.00;94679.33;646951;212;32253;-70
2021/08/06 01:55:25;;;;;;;4.50;1.27;;;13.60;1.40;;;14.77;100.00;94673.78;645276;213;39469;-70
2021/08/06 01:58:07;;;;;;;1.60;1.30;;;13.50;1.40;;;14.72;100.00;94669.14;618014;222;42541;-70
2021/08/06 02:00:52;;;;;;;1.40;1.00;;;13.40;1.40;;;14.70;100.00;94668.19;619458;226;41515;-71
2021/08/06 02:03:34;;;;;;;1.60;1.30;;;13.50;1.40;;;14.67;100.00;94667.50;646289;212;31819;-70
2021/08/06 02:08:51;;;;;;;2.10;1.70;;;13.40;1.40;;;14.65;100.00;94662.30;647169;212;31550;-73
2021/08/06 02:14:07;;;;;;;2.30;1.10;;;13.50;1.40;;;14.71;100.00;94658.49;646225;212;41984;-70
2021/08/06 02:16:52;;;;;;;1.08;0.90;;;13.50;1.40;;;14.73;100.00;94657.11;617994;222;36070;-71
2021/08/06 02:19:33;;;;;;;1.48;0.90;;;13.60;1.40;;;14.76;100.00;94661.98;647216;216;31530;-70
2021/08/06 02:22:15;;;;;;;1.27;1.02;;;13.60;1.40;;;14.86;100.00;94655.63;645989;213;42175;-71
2021/08/06 02:24:57;;;;;;;1.10;1.00;;;13.60;1.40;;;14.86;100.00;94652.96;646402;216;36040;-70
2021/08/06 02:27:38;;;;;;;0.90;0.80;;;13.70;1.40;;;14.89;100.00;94652.42;646237;216;31781;-70
2021/08/06 02:30:21;;;;;;;1.00;0.90;;;13.70;1.40;;;14.97;100.00;94654.20;646253;213;31496;-70
2021/08/06 02:33:02;;;;;;;1.70;0.90;;;13.60;1.40;;;15.05;100.00;94654.26;645946;212;42495;-71
2021/08/06 02:35:51;;;;;;;1.17;1.08;;;13.70;1.40;;;15.00;100.00;94646.88;646067;216;32154;-71
2021/08/06 02:38:34;;;;;;;2.55;0.93;;;13.60;1.40;;;14.98;100.00;94649.38;647479;216;31520;-71
2021/08/06 02:41:14;;;;;;;0.82;0.80;;;13.50;1.40;;;14.90;100.00;94649.61;617118;222;42535;-71
2021/08/06 02:43:59;;;;;;;2.30;1.10;;;13.50;1.40;;;14.76;100.00;94651.30;645988;216;42260;-71
2021/08/06 02:46:40;;;;;;;2.53;1.00;;;13.50;1.40;;;14.75;100.00;94652.73;646911;216;42278;-71
2021/08/06 02:49:22;;;;;;;0.90;0.90;;;13.50;1.40;;;14.77;100.00;94643.24;646529;216;42546;-70
2021/08/06 02:52:04;;;;;;;1.33;1.20;;;13.70;1.40;;;14.85;100.00;94646.82;645754;212;42439;-70
2021/08/06 02:54:46;;;;;;;1.33;0.88;;;13.80;1.40;;;14.98;100.00;94641.18;646871;212;31545;-70
2021/08/06 02:57:29;;;;;;;1.65;0.90;;;13.90;1.40;;;15.06;100.00;94645.31;645046;216;42309;-71
2021/08/06 03:00:12;;;;;;;1.90;1.20;;;14.10;1.40;;;15.19;100.00;94648.12;646882;212;42450;-71
2021/08/06 03:02:54;;;;;;;1.00;0.90;;;14.20;1.40;;;15.22;100.00;94651.35;619385;222;31866;-71
2021/08/06 03:05:35;;;;;;;1.20;1.10;;;14.20;1.40;;;15.12;100.00;94649.50;646172;212;42157;-72
2021/08/06 03:08:17;;;;;;;1.12;1.00;;;14.00;1.40;;;15.04;100.00;94647.95;645899;212;42173;-71
2021/08/06 03:10:59;;;;;;;1.33;1.23;;;13.80;1.40;;;15.02;100.00;94651.39;646383;216;42139;-71
2021/08/06 03:13:41;;;;;;;1.40;1.08;;;13.80;1.40;;;14.92;100.00;94656.11;645178;216;34487;-72
2021/08/06 03:16:22;;;;;;;1.40;1.30;;;13.70;1.40;;;14.88;100.00;94653.61;646021;216;31578;-71
2021/08/06 03:19:04;;;;;;;1.10;0.90;;;13.70;1.40;;;14.87;100.00;94654.36;646915;216;31907;-72
2021/08/06 03:21:46;;;;;;;1.17;1.08;;;13.80;1.40;;;14.83;100.00;94658.45;646881;212;31519;-71
2021/08/06 03:24:27;;;;;;;1.30;0.93;;;13.70;1.40;;;14.84;100.00;94658.36;646668;212;31699;-72
2021/08/06 03:27:12;;;;;;;1.10;1.00;;;13.60;1.40;;;14.77;100.00;94658.80;645945;216;31672;-71
2021/08/06 03:29:54;;;;;;;1.62;1.30;;;13.60;1.40;;;14.72;100.00;94663.20;646416;212;31548;-71
2021/08/06 03:32:35;;;;;;;1.60;1.20;;;13.70;1.40;;;14.72;100.00;94664.92;647726;212;42299;-71
2021/08/06 03:35:51;;;;;;;1.30;1.12;;;13.50;1.40;;;14.73;100.00;94671.64;618643;222;32449;-71
2021/08/06 03:38:33;;;;;;;1.73;1.23;;;13.30;1.40;;;14.64;100.00;94671.53;646673;212;40018;-71
2021/08/06 03:41:14;;;;;;;1.60;1.30;;;13.10;1.40;;;14.49;100.00;94674.03;626113;217;32012;-71
2021/08/06 03:43:56;;;;;;;1.70;1.40;;;12.90;1.40;;;14.47;100.00;94677.46;644824;216;41622;-72
2021/08/06 03:46:38;;;;;;;1.48;1.30;;;12.80;1.40;;;14.43;100.00;94679.38;645752;212;42267;-72
2021/08/06 03:49:19;;;;;;;1.60;1.30;;;12.80;1.40;;;14.44;100.00;94682.64;646635;216;42635;-70
2021/08/06 03:52:01;;;;;;;1.25;1.15;;;12.80;1.40;;;14.51;100.00;94681.84;645826;216;34703;-72
2021/08/06 03:54:43;;;;;;;1.90;1.20;;;12.80;1.40;;;14.50;100.00;94684.64;645645;216;31740;-72
2021/08/06 03:57:24;;;;;;;2.37;1.48;;;12.80;1.40;;;14.39;100.00;94679.73;647707;212;42712;-71
2021/08/06 04:00:07;;;;;;;2.10;1.60;;;12.80;1.40;;;14.51;100.00;94682.09;646173;216;31568;-71
2021/08/06 04:02:52;;;;;;;1.33;1.23;;;12.90;1.40;;;14.59;100.00;94679.38;646179;214;31914;-70
2021/08/06 04:05:34;;;;;;;1.70;1.30;;;13.00;1.40;;;14.58;100.00;94677.53;646327;212;42163;-70
2021/08/06 04:08:15;;;;;;;2.80;1.23;;;13.30;1.40;;;14.72;100.00;94676.34;646737;212;31610;-71
2021/08/06 04:10:57;;;;;;;1.95;1.45;;;13.40;1.40;;;14.89;100.00;94675.23;646207;216;32698;-70
2021/08/06 04:13:39;;;;;;;2.50;1.20;;;13.50;1.40;;;14.96;100.00;94673.77;647828;216;31678;-71
2021/08/06 04:16:20;;;;;;;1.87;1.35;;;13.60;1.40;;;15.09;100.00;94673.45;645022;212;31583;-70
2021/08/06 04:19:02;;;;;;;3.03;1.35;;;13.70;1.40;;;15.16;100.00;94670.52;646724;212;31563;-71
2021/08/06 04:21:44;;;;;;;2.62;1.10;;;13.70;1.40;;;15.17;100.00;94667.73;645934;212;42167;-71
2021/08/06 04:24:26;;;;;;;1.70;1.30;;;13.80;1.40;;;15.15;100.00;94674.28;647022;213;31527;-71
2021/08/06 04:27:07;;;;;;;1.30;1.20;;;13.90;1.40;;;15.16;100.00;94669.74;645648;212;42167;-71
2021/08/06 04:29:49;;;;;;;1.20;1.10;;;14.00;1.40;;;15.21;100.00;94667.29;646698;212;42316;-71
2021/08/06 04:32:31;;;;;;;1.40;1.30;;;13.90;1.40;;;15.51;100.00;94669.49;617279;225;31878;-71
2021/08/06 04:35:51;;;;;;;2.60;1.50;;;13.90;1.40;;;15.53;100.00;94672.08;646973;212;32041;-71
2021/08/06 04:38:33;;;;;;;1.40;1.30;;;13.90;1.40;;;15.59;100.00;94670.22;618202;225;32260;-71
2021/08/06 04:41:14;;;;;;;1.33;1.10;;;14.00;1.40;;;15.58;100.00;94671.63;636959;216;32023;-71
2021/08/06 04:43:58;;;;;;;1.83;1.10;;;14.10;1.40;;;15.74;100.00;94671.67;646660;216;31561;-71
2021/08/06 04:46:40;;;;;;;1.45;1.10;;;14.10;1.40;;;15.72;100.00;94664.54;645298;216;31551;-71
2021/08/06 04:49:21;;;;;;;2.83;1.20;;;14.10;1.40;;;15.75;100.00;94665.03;645963;216;31571;-70
2021/08/06 04:52:03;;;;;;;1.90;1.40;;;14.20;1.40;;;15.79;100.00;94658.91;646517;216;31527;-70
2021/08/06 04:54:48;;;;;;;1.95;1.30;;;14.30;1.40;;;16.00;100.00;94654.67;647473;216;31581;-71
2021/08/06 04:57:30;;;;;;;2.25;1.25;;;14.30;1.40;;;15.98;100.00;94653.75;646527;212;31643;-71
2021/08/06 05:00:12;;;;;;;1.30;1.20;;;14.40;1.40;;;15.97;100.00;94651.49;646069;212;31635;-70
2021/08/06 05:02:54;;;;;;;1.62;1.40;;;14.40;1.40;;;15.99;100.00;94649.52;629953;221;31630;-71
2021/08/06 05:05:39;;;;;;;2.78;1.37;;;14.40;1.40;;;16.00;100.00;94646.05;646076;216;31554;-71
2021/08/06 05:08:20;;;;;;;1.52;1.42;;;14.50;1.40;;;15.97;100.00;94642.47;645461;212;31523;-72
2021/08/06 05:11:02;;;;;;;1.40;1.23;;;14.60;1.40;;;16.01;100.00;94649.83;646907;216;31540;-71
2021/08/06 05:13:50;;;;;;;1.55;1.40;;;14.60;1.40;;;16.03;100.00;94648.06;646216;216;31544;-71
2021/08/06 05:16:37;;;;;;;2.25;1.33;;;14.70;1.40;;;16.13;100.00;94645.49;647192;216;31511;-71
2021/08/06 05:19:25;;;;;;;2.58;1.60;;;14.70;1.40;;;16.11;100.00;94652.02;646664;212;31604;-71
2021/08/06 05:22:07;;;;;;;1.50;1.40;;;14.70;1.40;;;16.13;100.00;94657.06;646472;216;31854;-70
2021/08/06 05:24:51;;;;;;;2.00;1.20;;;14.80;1.40;;;16.26;100.00;94658.94;645565;212;31572;-70
2021/08/06 05:27:38;;;;;;;1.80;1.30;;;14.80;1.40;;;16.17;100.00;94660.45;645399;212;31768;-70
2021/08/06 05:30:22;;;;;;;1.90;1.40;;;14.90;1.40;;;16.30;100.00;94665.33;644900;212;31552;-71
2021/08/06 05:33:03;;;;;;;2.33;1.42;;;15.00;1.40;;;16.31;100.00;94664.91;646000;212;31547;-70
2021/08/06 05:35:51;;;;;;;1.30;1.20;;;15.00;1.40;;;16.60;100.00;94660.22;645466;216;31556;-71
2021/08/06 05:38:33;;;;;;;1.60;1.50;;;15.10;1.40;;;16.78;100.00;94663.52;619630;222;32135;-71
2021/08/06 05:41:14;;;;;;;1.70;1.30;;;15.30;1.40;;;16.78;100.00;94662.09;636058;212;31771;-71
2021/08/06 05:43:58;;;;;;;1.70;1.30;;;15.30;1.40;;;16.99;100.00;94662.33;646172;216;31573;-71
2021/08/06 05:46:46;;;;;;;1.83;1.40;;;15.40;1.40;;;17.04;100.00;94656.72;647703;212;31614;-71
2021/08/06 05:49:33;;;;;;;2.10;1.60;;;15.50;1.40;;;17.02;100.00;94655.41;646195;216;31664;-71
2021/08/06 05:52:15;;;;;;;1.50;1.40;;;15.60;1.40;;;17.32;100.00;94656.83;646284;212;31566;-71
2021/08/06 05:54:59;;;;;;;2.00;1.80;;;15.80;1.40;;;17.30;100.00;94655.53;645999;216;31542;-69
2021/08/06 05:57:41;;;;;;;2.33;1.10;;;16.00;1.40;;;17.25;100.00;94654.55;646270;216;31560;-68
2021/08/06 06:00:22;;;;;;;1.60;1.30;;;16.10;1.40;;;17.22;99.56;94650.30;646260;216;31969;-69
2021/08/06 06:03:04;;;;;;;1.80;1.30;;;16.10;1.40;;;17.21;99.54;94650.34;646502;212;32128;-69
2021/08/06 06:05:49;;;;;;;1.62;1.40;;;16.10;1.40;;;17.32;98.27;94654.36;646372;216;31567;-69
2021/08/06 06:08:31;;;;;;;1.60;1.50;;;16.20;1.40;;;17.27;97.71;94654.82;645798;212;31545;-68
2021/08/06 06:11:12;;;;;;;1.90;1.42;;;16.30;1.40;;;17.48;97.52;94646.42;646795;216;31904;-69
2021/08/06 06:13:56;;;;;;;3.28;1.85;;;16.50;1.40;;;17.79;95.74;94651.22;647814;216;31956;-68
2021/08/06 06:16:35;;;;;;;1.90;1.30;;;16.80;1.40;;;18.25;90.52;94649.70;646686;216;31561;-68
2021/08/06 06:19:17;;;;;;;1.60;1.40;;;17.20;1.40;;;18.37;90.57;94650.68;644950;216;31566;-68
2021/08/06 06:21:59;;;;;;;1.17;0.98;;;17.20;1.40;;;18.41;88.65;94649.18;646347;215;31969;-68
2021/08/06 06:24:41;;;;;;;2.12;1.08;;;17.20;1.40;;;18.40;85.00;94650.28;646114;216;31668;-69
2021/08/06 06:27:22;;;;;;;1.92;1.40;;;17.20;1.40;;;18.58;85.84;94651.24;645684;212;31644;-68
2021/08/06 06:30:05;;;;;;;1.70;1.30;;;17.40;1.40;;;18.85;85.46;94661.03;645979;212;31609;-69
2021/08/06 06:32:47;;;;;;;4.57;4.18;;;17.60;1.40;;;18.86;85.17;94665.30;646425;212;31554;-68
2021/08/06 06:35:51;;;;;;;8.82;8.13;;;17.60;1.40;;;18.80;83.22;94665.64;645816;212;31561;-68
2021/08/06 06:38:32;;;;;;;4.93;4.12;;;17.50;1.40;;;18.65;85.85;94672.55;645669;216;31564;-69
2021/08/06 06:41:14;;;;;;;2.90;2.40;;;17.40;1.40;;;18.47;88.48;94675.59;636288;212;31895;-68
2021/08/06 06:43:56;;;;;;;3.60;2.00;;;17.20;1.40;;;18.09;91.23;94681.41;645880;216;31578;-69
2021/08/06 06:52:02;;;;;;;3.00;1.80;;;16.00;1.40;;;16.58;100.00;94676.94;645258;216;31579;-71
2021/08/06 06:54:49;;;;;;;1.40;1.30;;;15.70;1.40;;;16.34;100.00;94673.97;646397;212;31647;-70
2021/08/06 06:57:31;;;;;;;1.60;1.50;;;15.60;1.40;;;16.35;100.00;94679.92;645445;212;31721;-70
2021/08/06 07:00:14;;;;;;;2.35;1.50;;;15.60;1.40;;;16.61;100.00;94682.80;647025;216;31561;-71
2021/08/06 07:03:01;;;;;;;1.55;1.45;;;15.70;1.40;;;16.54;100.00;94688.02;645850;212;31567;-70
2021/08/06 07:05:45;;;;;;;1.95;1.85;;;15.70;1.40;;;16.60;100.00;94701.16;645666;212;31586;-70
2021/08/06 07:08:29;;;;;;;1.77;1.30;;;15.60;1.40;;;16.54;100.00;94712.19;644664;216;32044;-71
2021/08/06 07:11:10;;;;;;;1.87;1.65;;;15.50;1.40;;;16.56;100.00;94716.07;646406;212;32407;-70
2021/08/06 07:14:01;;;;;;;2.50;1.70;;;15.50;1.40;;;16.53;100.00;94740.84;645866;212;31528;-71
2021/08/06 07:16:49;;;;;;;2.08;1.98;;;15.60;1.40;;;16.53;100.00;94755.13;631571;221;31785;-71
2021/08/06 07:19:39;;;;;;;1.90;1.62;;;15.60;1.40;;;16.59;100.00;94748.20;645846;216;31546;-70
2021/08/06 07:22:21;;;;;;;4.50;1.95;;;15.80;1.40;;;16.59;100.00;94743.32;645488;216;31690;-70
2021/08/06 07:25:02;;;;;;;1.70;1.60;;;15.90;1.40;;;16.46;100.00;94759.75;645890;216;31560;-71
2021/08/06 07:27:46;;;;;;;3.05;1.75;;;15.70;1.40;;;16.11;100.00;94769.67;646594;216;31538;-71
2021/08/06 07:30:34;;;;;;;2.47;1.77;;;15.30;1.40;;;15.87;100.00;94770.72;630686;221;31742;-71
2021/08/06 07:38:34;;;;;;;2.55;2.00;;;14.90;1.40;;;15.81;100.00;94764.19;644617;212;31548;-70
2021/08/06 07:41:16;;;;;;;2.12;1.92;;;15.00;1.40;;;-143.44;100.00;122422.95;636878;216;31705;-71
2021/08/06 07:43:57;;;;;;;1.90;1.80;;;15.10;1.40;;;;;;646145;216;31556;-71
2021/08/06 07:46:38;;;;;;;2.80;2.60;;;15.10;1.40;;;;;;647037;216;31554;-70
2021/08/06 07:49:19;;;;;;;2.62;1.80;;;15.20;1.40;;;;;;645827;216;31551;-70
2021/08/06 07:52:00;;;;;;;1.80;1.70;;;15.30;1.40;;;;;;647703;216;32374;-70
2021/08/06 07:54:48;;;;;;;2.00;1.80;;;15.50;1.40;;;;;;645000;216;31571;-71
2021/08/06 07:57:34;;;;;;;1.87;1.77;;;15.90;1.40;;;;;;646603;216;31712;-71
2021/08/06 08:00:21;;;;;;;2.60;2.00;;;16.10;1.40;;;;;;646290;216;31646;-71
2021/08/06 08:03:08;;;;;;;1.90;1.80;;;16.10;1.40;;;;;;646749;216;31737;-71
2021/08/06 08:05:49;;;;;;;2.43;1.80;;;16.10;1.40;;;;;;645729;212;31713;-71
2021/08/06 08:08:30;;;;;;;1.90;1.80;;;16.10;1.40;;;;;;646471;215;31618;-70
2021/08/06 08:11:11;;;;;;;2.47;2.22;;;15.90;1.40;;;;;;618450;222;31904;-71
2021/08/06 08:13:52;;;;;;;2.40;2.20;;;15.80;1.40;;;;;;645892;216;31548;-70
2021/08/06 08:16:33;;;;;;;2.20;2.00;;;15.80;1.40;;;;;;647228;212;31550;-71
2021/08/06 08:19:18;;;;;;;1.83;1.73;;;15.90;1.40;;;;;;645816;212;31882;-72
2021/08/06 08:22:03;;;;;;;2.03;1.93;;;16.10;1.40;;;;;;646033;212;31862;-70
2021/08/06 08:24:45;;;;;;;2.23;2.00;;;16.30;1.40;;;;;;645423;212;31712;-70
2021/08/06 08:27:25;;;;;;;2.10;1.90;;;16.50;1.40;;;;;;635594;220;32452;-70
2021/08/06 08:30:07;;;;;;;2.40;1.83;;;16.70;1.40;;;;;;646535;212;31571;-70
2021/08/06 08:32:48;;;;;;;1.60;1.50;;;16.70;1.40;;;;;;646924;216;31518;-70
2021/08/06 08:35:57;;;;;;;1.70;1.58;;;16.80;1.40;;;17.49;100.00;94774.81;641945;216;31615;-71
2021/08/06 08:38:45;;;;;;;1.45;1.35;;;16.90;1.40;;;17.62;100.00;94776.73;646492;216;31836;-70
2021/08/06 08:41:27;;;;;;;1.50;1.40;;;17.00;1.40;;;17.74;100.00;94771.25;636113;212;31712;-71
2021/08/06 08:44:09;;;;;;;1.30;1.20;;;17.10;1.40;;;18.14;100.00;94767.58;646697;216;31530;-70
2021/08/06 08:46:50;;;;;;;1.30;1.20;;;17.50;1.40;;;18.82;100.00;94768.03;646466;216;31526;-71
2021/08/06 08:49:35;;;;;;;2.12;1.50;;;18.20;1.40;;;19.13;100.00;94763.88;645732;212;31990;-72
2021/08/06 08:52:17;;;;;;;1.60;1.23;;;18.30;1.40;;;19.50;100.00;94761.66;619258;226;31927;-71
2021/08/06 08:54:58;;;;;;;1.40;1.30;;;18.70;1.40;;;19.30;100.00;94769.20;644971;216;32086;-71
2021/08/06 08:57:40;;;;;;;1.58;1.27;;;18.40;1.40;;;19.56;100.00;94764.39;646141;212;31609;-70
2021/08/06 09:00:22;;;;;;;1.27;1.12;;;18.70;1.40;;;19.66;100.00;94762.48;617835;226;32172;-70
2021/08/06 09:03:03;;;;;;;2.33;1.25;;;18.70;1.40;;;19.45;99.44;94756.41;646812;216;31946;-71
2021/08/06 09:05:52;;;;;;;1.27;1.10;;;18.50;1.40;;;19.58;99.96;94759.54;619363;222;32380;-70
2021/08/06 09:08:42;;;;;;;1.67;1.10;;;18.70;1.40;;;19.85;100.00;94763.58;630618;221;32150;-71
2021/08/06 09:11:30;;;;;;;1.65;1.10;;;18.90;1.40;;;19.49;97.88;94762.42;646732;216;31580;-71
2021/08/06 09:14:17;;;;;;;1.50;1.30;;;18.70;1.40;;;19.90;93.87;94762.84;611559;225;32135;-70
2021/08/06 09:17:00;;;;;;;2.20;1.40;;;19.20;1.40;;;20.08;95.97;94772.81;646656;216;31770;-70
2021/08/06 09:20:53;;;;;;;1.70;1.30;;;20.00;1.40;;;21.49;85.61;94766.29;618536;226;43063;-71
2021/08/06 09:23:49;;;;;;;3.10;1.40;;;22.10;1.40;;;22.23;75.66;94764.98;645866;212;31509;-70
2021/08/06 09:26:41;;;;;;;1.70;1.25;;;22.50;1.40;;;22.71;76.74;94758.57;645999;213;42179;-71
2021/08/06 09:29:27;;;;;;;1.33;1.02;;;23.20;1.40;;;22.39;78.72;94765.50;645576;212;31521;-71
2021/08/06 09:32:10;;;;;;;1.58;1.17;;;21.70;1.40;;;22.69;77.26;94761.28;620051;225;32125;-70
2021/08/06 09:35:51;;;;;;;2.00;1.30;;;21.90;1.40;;;22.43;76.79;94768.34;647248;216;31592;-71
2021/08/06 09:38:35;;;;;;;1.48;1.15;;;20.50;1.40;;;21.28;79.47;94770.46;646539;212;31562;-70
2021/08/06 09:41:40;;;;;;;1.30;1.20;;;19.60;1.40;;;20.92;81.57;94773.17;646514;216;31571;-70
2021/08/06 09:44:24;;;;;;;2.87;1.40;;;19.80;1.40;;;20.58;81.21;94775.69;646767;216;31592;-71
2021/08/06 09:47:16;;;;;;;1.63;1.37;;;19.30;1.40;;;20.18;83.35;94781.16;646832;212;31506;-70
2021/08/06 09:49:57;;;;;;;2.00;1.70;;;19.30;1.40;;;20.95;78.04;94783.53;645377;216;42700;-71
2021/08/06 09:52:43;;;;;;;1.77;1.00;;;20.20;1.40;;;21.36;74.34;94790.94;646648;212;31565;-70
2021/08/06 09:55:27;;;;;;;2.73;1.10;;;20.10;1.40;;;21.40;75.33;94778.31;646778;216;32056;-70
2021/08/06 09:58:19;;;;;;;4.05;1.42;;;21.10;1.40;;;21.67;73.76;94778.27;647107;212;31904;-70
2021/08/06 10:01:03;;;;;;;1.60;1.10;;;20.40;1.40;;;21.40;74.61;94787.87;646776;216;31782;-71
2021/08/06 10:06:22;;;;;;;1.60;1.20;;;21.20;1.40;;;22.44;66.67;94786.39;647200;216;31598;-70
2021/08/06 10:09:06;;;;;;;1.12;0.90;;;22.20;1.40;;;23.76;64.51;94780.95;645825;212;31749;-71
2021/08/06 10:11:48;;;;;;;1.40;1.20;;;23.80;1.40;;;25.44;59.02;94786.64;645599;216;42795;-70
2021/08/06 10:14:30;;;;;;;3.03;1.20;;;24.10;1.40;;;25.63;58.95;94778.05;646847;212;31541;-71
2021/08/06 10:17:12;;;;;;;1.55;1.10;;;24.90;1.40;;;25.51;56.29;94777.41;646596;212;31591;-72
2021/08/06 10:19:55;;;;;;;1.30;1.20;;;24.70;1.40;;;24.52;59.31;94770.58;645753;216;32940;-71
2021/08/06 10:22:39;;;;;;;1.08;0.88;;;23.70;1.40;;;25.01;57.16;94772.87;647098;216;31630;-71
2021/08/06 10:25:21;;;;;;;1.30;1.15;;;23.60;1.40;;;24.65;58.13;94769.47;646270;216;31757;-70
2021/08/06 10:28:02;;;;;;;1.90;1.20;;;23.60;1.40;;;25.34;57.96;94771.86;645144;216;31662;-71
2021/08/06 10:30:50;;;;;;;1.27;1.00;;;24.20;1.40;;;26.03;55.99;94769.30;641399;214;31618;-71
2021/08/06 10:35:55;;;;;;;1.95;1.17;;;24.10;1.40;;;25.20;57.72;94774.21;645878;212;31534;-70
2021/08/06 10:38:40;;;;;;;2.08;1.10;;;22.90;1.40;;;24.17;57.67;94761.99;646513;213;31536;-70
2021/08/06 10:41:23;;;;;;;1.50;1.10;;;22.90;1.40;;;25.87;54.41;94756.60;646142;216;31786;-70
2021/08/06 10:44:04;;;;;;;2.58;1.30;;;24.80;1.40;;;25.41;53.82;94758.23;645422;216;31924;-71
2021/08/06 10:46:58;;;;;;;1.60;1.30;;;24.30;1.40;;;25.55;53.54;94748.53;646708;212;31497;-71
2021/08/06 10:49:39;;;;;;;1.42;1.10;;;24.50;1.40;;;25.82;53.38;94753.17;648137;216;31515;-71
2021/08/06 10:52:23;;;;;;;1.98;1.10;;;24.70;1.40;;;25.76;52.11;94752.97;646458;212;42865;-72
2021/08/06 10:55:16;;;;;;;3.25;1.10;;;24.90;1.40;;;25.72;51.32;94743.59;646328;212;33188;-71
2021/08/06 10:57:57;;;;;;;1.90;1.20;;;23.30;1.40;;;23.58;57.34;94745.17;618415;226;32012;-70
2021/08/06 11:00:44;;;;;;;2.08;1.30;;;22.20;1.40;;;-143.44;100.00;122422.95;646341;216;31561;-71
2021/08/06 11:03:34;;;;;;;1.60;1.27;;;23.20;1.40;;;;;;645858;216;31517;-70
2021/08/06 11:09:02;;;;;;;1.60;1.00;;;24.60;1.40;;;;;;647018;216;42179;-70
2021/08/06 11:11:58;;;;;;;1.65;1.00;;;22.50;1.40;;;;;;645339;215;31524;-72
2021/08/06 11:14:49;;;;;;;2.03;1.10;;;22.50;1.40;;;;;;636810;216;31793;-70
2021/08/06 11:17:34;;;;;;;1.65;1.10;;;23.60;1.40;;;;;;646017;216;42167;-70
2021/08/06 11:20:16;;;;;;;4.12;2.20;;;24.20;1.40;;;;;;646216;212;31531;-70
2021/08/06 11:22:57;;;;;;;3.20;1.50;;;24.20;1.40;;;;;;648051;216;31532;-71
2021/08/06 11:25:38;;;;;;;1.67;1.20;;;23.30;1.40;;;;;;618338;226;31926;-70
2021/08/06 11:28:25;;;;;;;2.55;1.00;;;21.90;1.40;;;;;;644847;216;31721;-71
2021/08/06 11:31:16;;;;;;;1.70;1.10;;;22.60;1.40;;;;;;646975;216;31529;-70
2021/08/06 11:38:33;;;;;;;2.47;1.20;;;23.50;1.40;;;24.16;50.76;94733.80;646694;216;31524;-72
2021/08/06 11:41:16;;;;;;;2.10;1.10;;;23.20;1.40;;;24.98;50.16;94725.85;636728;216;31684;-71
2021/08/06 11:44:00;;;;;;;2.87;1.10;;;24.00;1.40;;;24.63;51.57;94723.22;645348;212;31776;-71
2021/08/06 11:46:48;;;;;;;2.10;1.27;;;23.80;1.40;;;27.17;48.69;94706.30;646864;212;31602;-71
2021/08/06 11:49:30;;;;;;;1.55;0.90;;;25.20;1.40;;;-143.44;100.00;122422.95;646707;216;31685;-71
2021/08/06 11:52:17;;;;;;;1.17;1.08;;;23.60;1.40;;;;;;644685;216;31564;-72
2021/08/06 11:54:58;;;;;;;2.00;1.27;;;23.60;1.40;;;;;;647914;216;31502;-71
2021/08/06 11:57:42;;;;;;;2.10;1.23;;;23.40;1.40;;;;;;646241;216;31523;-71
2021/08/06 12:00:27;;;;;;;2.72;1.10;;;23.60;1.40;;;;;;645070;212;42758;-71
2021/08/06 12:03:12;;;;;;;1.73;1.17;;;24.20;1.40;;;;;;647031;216;31558;-71
2021/08/06 12:06:00;;;;;;;2.70;1.10;;;24.20;1.40;;;;;;647072;216;32129;-71
2021/08/06 12:08:41;;;;;;;1.20;1.10;;;24.20;1.40;;;;;;645572;216;42185;-71
2021/08/06 12:11:22;;;;;;;1.95;1.10;;;25.00;1.40;;;;;;646393;212;31577;-71
2021/08/06 12:14:04;;;;;;;2.30;1.10;;;25.00;1.40;;;;;;646366;212;31916;-71
2021/08/06 12:16:50;;;;;;;1.40;1.15;;;24.40;1.40;;;;;;646586;212;31575;-71
2021/08/06 12:19:31;;;;;;;1.23;1.00;;;24.10;1.40;;;;;;646509;216;31538;-71
2021/08/06 12:22:15;;;;;;;1.37;1.20;;;25.00;1.40;;;;;;619400;226;31873;-71
2021/08/06 12:24:55;;;;;;;2.00;1.10;;;25.20;1.40;;;;;;646197;216;31509;-71
2021/08/06 12:27:42;;;;;;;2.35;1.00;;;25.00;1.40;;;;;;646374;216;31739;-71
2021/08/06 12:30:25;;;;;;;1.55;1.10;;;24.60;1.40;;;;;;646595;212;31779;-71
2021/08/06 12:35:51;;;;;;;1.50;1.37;;;23.50;1.40;;;;;;647057;212;32590;-70
2021/08/06 12:38:34;;;;;;;1.90;1.12;;;23.50;1.40;;;;;;645953;216;31567;-71
2021/08/06 12:41:25;;;;;;;1.50;1.00;;;24.30;1.40;;;;;;637379;212;31729;-70